sensor_id;sensor_type;location;lat;lon;timestamp;P1;durP1;ratioP1;P2;durP2;ratioP2
54705;SDS011;40603;48.774;8.916;2023-07-02T00:02:22;5.15;;;2.72;;
54705;SDS011;40603;48.774;8.916;2023-07-02T00:04:47;5.13;;;2.13;;
54705;SDS011;40603;48.774;8.916;2023-07-02T00:07:13;4.72;;;2.78;;
54705;SDS011;40603;48.774;8.916;2023-07-02T00:09:39;5.57;;;2.60;;
54705;SDS011;40603;48.774;8.916;2023-07-02T00:12:05;4.45;;;2.65;;
54705;SDS011;40603;48.774;8.916;2023-07-02T00:14:30;2.85;;;2.42;;
54705;SDS011;40603;48.774;8.916;2023-07-02T00:16:56;5.80;;;2.85;;
54705;SDS011;40603;48.774;8.916;2023-07-02T00:19:21;3.30;;;2.70;;
54705;SDS011;40603;48.774;8.916;2023-07-02T00:21:46;4.40;;;2.63;;
54705;SDS011;40603;48.774;8.916;2023-07-02T00:24:12;12.90;;;2.85;;
54705;SDS011;40603;48.774;8.916;2023-07-02T00:26:38;4.22;;;2.50;;
54705;SDS011;40603;48.774;8.916;2023-07-02T00:29:05;4.32;;;2.75;;
54705;SDS011;40603;48.774;8.916;2023-07-02T00:31:31;9.98;;;2.47;;
54705;SDS011;40603;48.774;8.916;2023-07-02T00:33:56;3.88;;;2.55;;
54705;SDS011;40603;48.774;8.916;2023-07-02T00:36:22;3.33;;;2.65;;
54705;SDS011;40603;48.774;8.916;2023-07-02T00:38:48;5.47;;;2.63;;
54705;SDS011;40603;48.774;8.916;2023-07-02T00:41:13;4.70;;;2.65;;
54705;SDS011;40603;48.774;8.916;2023-07-02T00:43:39;4.30;;;2.42;;
54705;SDS011;40603;48.774;8.916;2023-07-02T00:46:08;2.65;;;2.45;;
54705;SDS011;40603;48.774;8.916;2023-07-02T00:48:53;3.50;;;2.72;;
54705;SDS011;40603;48.774;8.916;2023-07-02T00:51:20;8.93;;;2.60;;
54705;SDS011;40603;48.774;8.916;2023-07-02T00:53:47;5.60;;;2.33;;
54705;SDS011;40603;48.774;8.916;2023-07-02T00:56:14;5.65;;;3.00;;
54705;SDS011;40603;48.774;8.916;2023-07-02T00:58:40;9.98;;;3.03;;
54705;SDS011;40603;48.774;8.916;2023-07-02T01:01:11;4.88;;;3.22;;
54705;SDS011;40603;48.774;8.916;2023-07-02T01:03:49;6.80;;;2.95;;
54705;SDS011;40603;48.774;8.916;2023-07-02T01:06:33;4.05;;;2.80;;
54705;SDS011;40603;48.774;8.916;2023-07-02T01:09:01;4.88;;;3.13;;
54705;SDS011;40603;48.774;8.916;2023-07-02T01:11:40;11.30;;;3.85;;
54705;SDS011;40603;48.774;8.916;2023-07-02T01:14:10;10.10;;;2.95;;
54705;SDS011;40603;48.774;8.916;2023-07-02T01:16:37;6.10;;;3.20;;
54705;SDS011;40603;48.774;8.916;2023-07-02T01:19:09;3.35;;;2.92;;
54705;SDS011;40603;48.774;8.916;2023-07-02T01:21:37;3.83;;;2.78;;
54705;SDS011;40603;48.774;8.916;2023-07-02T01:24:02;3.72;;;2.80;;
54705;SDS011;40603;48.774;8.916;2023-07-02T01:26:31;4.22;;;2.53;;
54705;SDS011;40603;48.774;8.916;2023-07-02T01:29:00;3.63;;;2.50;;
54705;SDS011;40603;48.774;8.916;2023-07-02T01:31:37;2.55;;;2.35;;
54705;SDS011;40603;48.774;8.916;2023-07-02T01:34:03;4.05;;;2.75;;
54705;SDS011;40603;48.774;8.916;2023-07-02T01:36:29;3.58;;;2.40;;
54705;SDS011;40603;48.774;8.916;2023-07-02T01:38:55;3.08;;;2.53;;
54705;SDS011;40603;48.774;8.916;2023-07-02T01:41:20;3.78;;;2.75;;
54705;SDS011;40603;48.774;8.916;2023-07-02T01:43:45;3.28;;;2.58;;
54705;SDS011;40603;48.774;8.916;2023-07-02T01:46:10;3.85;;;2.35;;
54705;SDS011;40603;48.774;8.916;2023-07-02T01:48:36;5.35;;;2.58;;
54705;SDS011;40603;48.774;8.916;2023-07-02T01:51:01;4.53;;;2.28;;
54705;SDS011;40603;48.774;8.916;2023-07-02T01:53:27;4.03;;;3.00;;
54705;SDS011;40603;48.774;8.916;2023-07-02T01:55:53;5.18;;;2.60;;
54705;SDS011;40603;48.774;8.916;2023-07-02T01:58:18;5.32;;;3.08;;
54705;SDS011;40603;48.774;8.916;2023-07-02T02:00:43;4.85;;;2.80;;
54705;SDS011;40603;48.774;8.916;2023-07-02T02:03:09;5.00;;;2.47;;
54705;SDS011;40603;48.774;8.916;2023-07-02T02:05:34;5.63;;;2.60;;
54705;SDS011;40603;48.774;8.916;2023-07-02T02:08:00;6.63;;;2.53;;
54705;SDS011;40603;48.774;8.916;2023-07-02T02:10:25;4.35;;;2.45;;
54705;SDS011;40603;48.774;8.916;2023-07-02T02:12:50;4.97;;;2.60;;
54705;SDS011;40603;48.774;8.916;2023-07-02T02:15:16;7.57;;;2.40;;
54705;SDS011;40603;48.774;8.916;2023-07-02T02:17:41;4.22;;;2.22;;
54705;SDS011;40603;48.774;8.916;2023-07-02T02:20:07;3.83;;;2.35;;
54705;SDS011;40603;48.774;8.916;2023-07-02T02:22:33;7.38;;;2.67;;
54705;SDS011;40603;48.774;8.916;2023-07-02T02:24:58;9.15;;;2.50;;
54705;SDS011;40603;48.774;8.916;2023-07-02T02:27:23;8.05;;;2.50;;
54705;SDS011;40603;48.774;8.916;2023-07-02T02:29:49;5.18;;;2.88;;
54705;SDS011;40603;48.774;8.916;2023-07-02T02:32:14;8.30;;;2.90;;
54705;SDS011;40603;48.774;8.916;2023-07-02T02:34:42;6.57;;;2.90;;
54705;SDS011;40603;48.774;8.916;2023-07-02T02:37:07;7.18;;;2.63;;
54705;SDS011;40603;48.774;8.916;2023-07-02T02:39:33;3.92;;;2.55;;
54705;SDS011;40603;48.774;8.916;2023-07-02T02:41:58;5.03;;;2.90;;
54705;SDS011;40603;48.774;8.916;2023-07-02T02:44:23;4.05;;;2.28;;
54705;SDS011;40603;48.774;8.916;2023-07-02T02:46:49;4.10;;;2.55;;
54705;SDS011;40603;48.774;8.916;2023-07-02T02:49:14;7.72;;;2.33;;
54705;SDS011;40603;48.774;8.916;2023-07-02T02:51:39;4.18;;;2.35;;
54705;SDS011;40603;48.774;8.916;2023-07-02T02:54:05;6.85;;;2.45;;
54705;SDS011;40603;48.774;8.916;2023-07-02T02:56:30;8.93;;;2.80;;
54705;SDS011;40603;48.774;8.916;2023-07-02T02:58:56;9.05;;;2.28;;
54705;SDS011;40603;48.774;8.916;2023-07-02T03:01:21;4.75;;;3.33;;
54705;SDS011;40603;48.774;8.916;2023-07-02T03:03:46;7.57;;;3.08;;
54705;SDS011;40603;48.774;8.916;2023-07-02T03:06:15;6.53;;;2.65;;
54705;SDS011;40603;48.774;8.916;2023-07-02T03:08:40;6.68;;;2.55;;
54705;SDS011;40603;48.774;8.916;2023-07-02T03:11:05;6.85;;;2.83;;
54705;SDS011;40603;48.774;8.916;2023-07-02T03:13:31;5.30;;;2.85;;
54705;SDS011;40603;48.774;8.916;2023-07-02T03:15:56;8.15;;;3.40;;
54705;SDS011;40603;48.774;8.916;2023-07-02T03:18:21;7.97;;;3.45;;
54705;SDS011;40603;48.774;8.916;2023-07-02T03:20:47;5.85;;;3.22;;
54705;SDS011;40603;48.774;8.916;2023-07-02T03:23:12;6.50;;;2.97;;
54705;SDS011;40603;48.774;8.916;2023-07-02T03:25:37;5.53;;;3.38;;
54705;SDS011;40603;48.774;8.916;2023-07-02T03:28:03;7.90;;;3.75;;
54705;SDS011;40603;48.774;8.916;2023-07-02T03:30:28;8.25;;;2.70;;
54705;SDS011;40603;48.774;8.916;2023-07-02T03:32:53;8.98;;;3.53;;
54705;SDS011;40603;48.774;8.916;2023-07-02T03:35:20;5.80;;;3.45;;
54705;SDS011;40603;48.774;8.916;2023-07-02T03:37:45;7.18;;;3.05;;
54705;SDS011;40603;48.774;8.916;2023-07-02T03:40:11;7.25;;;3.05;;
54705;SDS011;40603;48.774;8.916;2023-07-02T03:42:36;5.20;;;2.70;;
54705;SDS011;40603;48.774;8.916;2023-07-02T03:45:02;11.30;;;3.22;;
54705;SDS011;40603;48.774;8.916;2023-07-02T03:47:28;6.75;;;3.08;;
54705;SDS011;40603;48.774;8.916;2023-07-02T03:49:53;5.35;;;2.90;;
54705;SDS011;40603;48.774;8.916;2023-07-02T03:52:19;6.68;;;3.40;;
54705;SDS011;40603;48.774;8.916;2023-07-02T03:54:44;5.43;;;3.22;;
54705;SDS011;40603;48.774;8.916;2023-07-02T03:57:09;7.70;;;3.67;;
54705;SDS011;40603;48.774;8.916;2023-07-02T03:59:35;7.05;;;3.58;;
54705;SDS011;40603;48.774;8.916;2023-07-02T04:02:00;10.70;;;3.58;;
54705;SDS011;40603;48.774;8.916;2023-07-02T04:04:25;7.68;;;3.15;;
54705;SDS011;40603;48.774;8.916;2023-07-02T04:06:50;7.25;;;3.60;;
54705;SDS011;40603;48.774;8.916;2023-07-02T04:09:16;7.65;;;3.47;;
54705;SDS011;40603;48.774;8.916;2023-07-02T04:11:43;9.73;;;3.60;;
54705;SDS011;40603;48.774;8.916;2023-07-02T04:14:08;4.88;;;3.10;;
54705;SDS011;40603;48.774;8.916;2023-07-02T04:16:33;8.38;;;3.80;;
54705;SDS011;40603;48.774;8.916;2023-07-02T04:18:59;5.13;;;2.90;;
54705;SDS011;40603;48.774;8.916;2023-07-02T04:21:24;4.78;;;2.97;;
54705;SDS011;40603;48.774;8.916;2023-07-02T04:23:49;7.00;;;2.85;;
54705;SDS011;40603;48.774;8.916;2023-07-02T04:26:15;6.72;;;3.13;;
54705;SDS011;40603;48.774;8.916;2023-07-02T04:28:40;7.45;;;3.05;;
54705;SDS011;40603;48.774;8.916;2023-07-02T04:31:05;7.88;;;3.03;;
54705;SDS011;40603;48.774;8.916;2023-07-02T04:33:30;7.22;;;2.42;;
54705;SDS011;40603;48.774;8.916;2023-07-02T04:36:00;5.90;;;2.90;;
54705;SDS011;40603;48.774;8.916;2023-07-02T04:38:26;4.45;;;3.10;;
54705;SDS011;40603;48.774;8.916;2023-07-02T04:40:53;4.28;;;2.90;;
54705;SDS011;40603;48.774;8.916;2023-07-02T04:43:18;5.43;;;2.72;;
54705;SDS011;40603;48.774;8.916;2023-07-02T04:45:44;9.32;;;3.47;;
54705;SDS011;40603;48.774;8.916;2023-07-02T04:48:09;10.20;;;3.70;;
54705;SDS011;40603;48.774;8.916;2023-07-02T04:50:34;5.22;;;2.80;;
54705;SDS011;40603;48.774;8.916;2023-07-02T04:53:00;5.60;;;2.90;;
54705;SDS011;40603;48.774;8.916;2023-07-02T04:55:25;11.95;;;3.17;;
54705;SDS011;40603;48.774;8.916;2023-07-02T04:57:50;8.38;;;3.25;;
54705;SDS011;40603;48.774;8.916;2023-07-02T05:00:16;11.23;;;3.55;;
54705;SDS011;40603;48.774;8.916;2023-07-02T05:02:41;6.72;;;3.25;;
54705;SDS011;40603;48.774;8.916;2023-07-02T05:05:07;11.25;;;3.83;;
54705;SDS011;40603;48.774;8.916;2023-07-02T05:07:32;11.80;;;4.63;;
54705;SDS011;40603;48.774;8.916;2023-07-02T05:09:58;9.70;;;3.53;;
54705;SDS011;40603;48.774;8.916;2023-07-02T05:12:23;10.30;;;3.72;;
54705;SDS011;40603;48.774;8.916;2023-07-02T05:14:48;12.10;;;4.22;;
54705;SDS011;40603;48.774;8.916;2023-07-02T05:17:14;12.13;;;3.92;;
54705;SDS011;40603;48.774;8.916;2023-07-02T05:19:39;8.30;;;3.88;;
54705;SDS011;40603;48.774;8.916;2023-07-02T05:22:05;9.07;;;4.07;;
54705;SDS011;40603;48.774;8.916;2023-07-02T05:24:31;10.75;;;4.75;;
54705;SDS011;40603;48.774;8.916;2023-07-02T05:26:56;9.18;;;4.32;;
54705;SDS011;40603;48.774;8.916;2023-07-02T05:29:21;9.02;;;4.28;;
54705;SDS011;40603;48.774;8.916;2023-07-02T05:31:47;12.85;;;4.32;;
54705;SDS011;40603;48.774;8.916;2023-07-02T05:34:12;6.25;;;4.13;;
54705;SDS011;40603;48.774;8.916;2023-07-02T05:36:37;9.73;;;4.25;;
54705;SDS011;40603;48.774;8.916;2023-07-02T05:39:03;14.60;;;4.85;;
54705;SDS011;40603;48.774;8.916;2023-07-02T05:41:28;10.35;;;4.47;;
54705;SDS011;40603;48.774;8.916;2023-07-02T05:43:56;12.02;;;5.15;;
54705;SDS011;40603;48.774;8.916;2023-07-02T05:46:22;9.50;;;4.65;;
54705;SDS011;40603;48.774;8.916;2023-07-02T05:48:47;10.00;;;4.45;;
54705;SDS011;40603;48.774;8.916;2023-07-02T05:51:13;12.30;;;4.50;;
54705;SDS011;40603;48.774;8.916;2023-07-02T05:53:38;12.95;;;5.40;;
54705;SDS011;40603;48.774;8.916;2023-07-02T05:56:03;13.18;;;6.57;;
54705;SDS011;40603;48.774;8.916;2023-07-02T05:58:29;13.18;;;5.82;;
54705;SDS011;40603;48.774;8.916;2023-07-02T06:00:55;14.50;;;5.78;;
54705;SDS011;40603;48.774;8.916;2023-07-02T06:03:20;12.27;;;5.78;;
54705;SDS011;40603;48.774;8.916;2023-07-02T06:05:48;11.50;;;5.93;;
54705;SDS011;40603;48.774;8.916;2023-07-02T06:08:17;14.70;;;6.38;;
54705;SDS011;40603;48.774;8.916;2023-07-02T06:10:43;21.42;;;6.95;;
54705;SDS011;40603;48.774;8.916;2023-07-02T06:13:09;15.45;;;6.50;;
54705;SDS011;40603;48.774;8.916;2023-07-02T06:15:34;12.07;;;5.45;;
54705;SDS011;40603;48.774;8.916;2023-07-02T06:17:59;14.90;;;6.60;;
54705;SDS011;40603;48.774;8.916;2023-07-02T06:20:25;13.50;;;5.93;;
54705;SDS011;40603;48.774;8.916;2023-07-02T06:22:50;10.63;;;5.72;;
54705;SDS011;40603;48.774;8.916;2023-07-02T06:25:15;17.80;;;6.32;;
54705;SDS011;40603;48.774;8.916;2023-07-02T06:27:41;17.42;;;7.47;;
54705;SDS011;40603;48.774;8.916;2023-07-02T06:30:06;17.73;;;7.35;;
54705;SDS011;40603;48.774;8.916;2023-07-02T06:32:32;18.67;;;6.68;;
54705;SDS011;40603;48.774;8.916;2023-07-02T06:34:57;15.32;;;7.10;;
54705;SDS011;40603;48.774;8.916;2023-07-02T06:37:22;16.70;;;7.95;;
54705;SDS011;40603;48.774;8.916;2023-07-02T06:39:48;15.15;;;7.05;;
54705;SDS011;40603;48.774;8.916;2023-07-02T06:42:13;15.05;;;8.27;;
54705;SDS011;40603;48.774;8.916;2023-07-02T06:44:39;16.02;;;8.20;;
54705;SDS011;40603;48.774;8.916;2023-07-02T06:47:05;21.58;;;8.75;;
54705;SDS011;40603;48.774;8.916;2023-07-02T06:49:30;14.90;;;7.90;;
54705;SDS011;40603;48.774;8.916;2023-07-02T06:51:55;16.95;;;8.75;;
54705;SDS011;40603;48.774;8.916;2023-07-02T06:54:21;23.77;;;9.77;;
54705;SDS011;40603;48.774;8.916;2023-07-02T06:56:46;22.08;;;9.00;;
54705;SDS011;40603;48.774;8.916;2023-07-02T06:59:11;20.83;;;10.30;;
54705;SDS011;40603;48.774;8.916;2023-07-02T07:01:37;23.77;;;9.43;;
54705;SDS011;40603;48.774;8.916;2023-07-02T07:04:02;18.73;;;9.60;;
54705;SDS011;40603;48.774;8.916;2023-07-02T07:06:28;20.88;;;9.75;;
54705;SDS011;40603;48.774;8.916;2023-07-02T07:08:54;20.70;;;9.98;;
54705;SDS011;40603;48.774;8.916;2023-07-02T07:11:19;17.23;;;9.00;;
54705;SDS011;40603;48.774;8.916;2023-07-02T07:13:44;23.60;;;9.68;;
54705;SDS011;40603;48.774;8.916;2023-07-02T07:16:10;26.50;;;10.70;;
54705;SDS011;40603;48.774;8.916;2023-07-02T07:18:36;21.52;;;9.73;;
54705;SDS011;40603;48.774;8.916;2023-07-02T07:21:01;22.40;;;10.10;;
54705;SDS011;40603;48.774;8.916;2023-07-02T07:23:27;25.75;;;10.35;;
54705;SDS011;40603;48.774;8.916;2023-07-02T07:25:52;26.20;;;10.73;;
54705;SDS011;40603;48.774;8.916;2023-07-02T07:28:17;24.80;;;10.63;;
54705;SDS011;40603;48.774;8.916;2023-07-02T07:30:43;19.13;;;9.95;;
54705;SDS011;40603;48.774;8.916;2023-07-02T07:33:10;20.23;;;10.05;;
54705;SDS011;40603;48.774;8.916;2023-07-02T07:35:35;22.02;;;10.43;;
54705;SDS011;40603;48.774;8.916;2023-07-02T07:38:00;24.88;;;10.82;;
54705;SDS011;40603;48.774;8.916;2023-07-02T07:40:26;18.98;;;10.10;;
54705;SDS011;40603;48.774;8.916;2023-07-02T07:42:51;25.52;;;11.25;;
54705;SDS011;40603;48.774;8.916;2023-07-02T07:45:16;22.13;;;9.70;;
54705;SDS011;40603;48.774;8.916;2023-07-02T07:47:42;21.70;;;10.90;;
54705;SDS011;40603;48.774;8.916;2023-07-02T07:50:07;25.88;;;12.05;;
54705;SDS011;40603;48.774;8.916;2023-07-02T07:52:37;27.17;;;11.50;;
54705;SDS011;40603;48.774;8.916;2023-07-02T07:55:03;23.42;;;11.35;;
54705;SDS011;40603;48.774;8.916;2023-07-02T07:57:29;24.48;;;11.35;;
54705;SDS011;40603;48.774;8.916;2023-07-02T07:59:54;27.00;;;11.60;;
54705;SDS011;40603;48.774;8.916;2023-07-02T08:02:20;19.58;;;10.73;;
54705;SDS011;40603;48.774;8.916;2023-07-02T08:04:47;25.38;;;10.75;;
54705;SDS011;40603;48.774;8.916;2023-07-02T08:07:13;28.60;;;12.15;;
54705;SDS011;40603;48.774;8.916;2023-07-02T08:09:38;18.33;;;9.55;;
54705;SDS011;40603;48.774;8.916;2023-07-02T08:12:03;24.52;;;11.05;;
54705;SDS011;40603;48.774;8.916;2023-07-02T08:14:29;25.13;;;11.02;;
54705;SDS011;40603;48.774;8.916;2023-07-02T08:16:54;25.83;;;11.32;;
54705;SDS011;40603;48.774;8.916;2023-07-02T08:19:20;25.20;;;11.02;;
54705;SDS011;40603;48.774;8.916;2023-07-02T08:21:46;22.80;;;11.02;;
54705;SDS011;40603;48.774;8.916;2023-07-02T08:24:11;22.60;;;10.30;;
54705;SDS011;40603;48.774;8.916;2023-07-02T08:26:37;23.90;;;10.48;;
54705;SDS011;40603;48.774;8.916;2023-07-02T08:29:03;25.27;;;10.75;;
54705;SDS011;40603;48.774;8.916;2023-07-02T08:31:28;29.13;;;11.75;;
54705;SDS011;40603;48.774;8.916;2023-07-02T08:33:53;21.83;;;10.55;;
54705;SDS011;40603;48.774;8.916;2023-07-02T08:36:19;21.75;;;9.90;;
54705;SDS011;40603;48.774;8.916;2023-07-02T08:38:44;25.17;;;11.18;;
54705;SDS011;40603;48.774;8.916;2023-07-02T08:41:09;20.60;;;11.20;;
54705;SDS011;40603;48.774;8.916;2023-07-02T08:43:35;21.77;;;10.77;;
54705;SDS011;40603;48.774;8.916;2023-07-02T08:46:00;17.58;;;9.18;;
54705;SDS011;40603;48.774;8.916;2023-07-02T08:48:26;20.33;;;9.65;;
54705;SDS011;40603;48.774;8.916;2023-07-02T08:50:54;21.30;;;10.23;;
54705;SDS011;40603;48.774;8.916;2023-07-02T08:53:19;19.45;;;10.00;;
54705;SDS011;40603;48.774;8.916;2023-07-02T08:55:44;20.35;;;10.73;;
54705;SDS011;40603;48.774;8.916;2023-07-02T08:58:10;25.13;;;10.73;;
54705;SDS011;40603;48.774;8.916;2023-07-02T09:00:35;23.45;;;10.82;;
54705;SDS011;40603;48.774;8.916;2023-07-02T09:03:14;23.77;;;10.70;;
54705;SDS011;40603;48.774;8.916;2023-07-02T09:05:50;19.92;;;10.65;;
54705;SDS011;40603;48.774;8.916;2023-07-02T09:08:23;19.75;;;9.88;;
54705;SDS011;40603;48.774;8.916;2023-07-02T09:10:49;25.35;;;10.60;;
54705;SDS011;40603;48.774;8.916;2023-07-02T09:13:14;19.30;;;10.13;;
54705;SDS011;40603;48.774;8.916;2023-07-02T09:15:40;22.15;;;9.88;;
54705;SDS011;40603;48.774;8.916;2023-07-02T09:18:18;23.48;;;11.50;;
54705;SDS011;40603;48.774;8.916;2023-07-02T09:20:45;19.20;;;10.27;;
54705;SDS011;40603;48.774;8.916;2023-07-02T09:23:10;23.38;;;9.77;;
54705;SDS011;40603;48.774;8.916;2023-07-02T09:25:36;17.35;;;9.88;;
54705;SDS011;40603;48.774;8.916;2023-07-02T09:28:21;20.58;;;10.00;;
54705;SDS011;40603;48.774;8.916;2023-07-02T09:30:52;19.48;;;9.85;;
54705;SDS011;40603;48.774;8.916;2023-07-02T09:33:24;23.73;;;9.98;;
54705;SDS011;40603;48.774;8.916;2023-07-02T09:35:59;19.35;;;8.75;;
54705;SDS011;40603;48.774;8.916;2023-07-02T09:38:27;19.33;;;9.50;;
54705;SDS011;40603;48.774;8.916;2023-07-02T09:40:58;20.67;;;10.27;;
54705;SDS011;40603;48.774;8.916;2023-07-02T09:43:27;22.55;;;10.45;;
54705;SDS011;40603;48.774;8.916;2023-07-02T09:45:54;23.67;;;10.93;;
54705;SDS011;40603;48.774;8.916;2023-07-02T09:48:22;26.48;;;11.02;;
54705;SDS011;40603;48.774;8.916;2023-07-02T09:50:50;19.23;;;10.45;;
54705;SDS011;40603;48.774;8.916;2023-07-02T09:53:28;24.77;;;10.18;;
54705;SDS011;40603;48.774;8.916;2023-07-02T09:55:54;27.30;;;10.73;;
54705;SDS011;40603;48.774;8.916;2023-07-02T09:58:19;20.92;;;11.15;;
54705;SDS011;40603;48.774;8.916;2023-07-02T10:00:44;22.85;;;11.40;;
54705;SDS011;40603;48.774;8.916;2023-07-02T10:03:10;26.15;;;12.05;;
54705;SDS011;40603;48.774;8.916;2023-07-02T10:05:35;21.58;;;11.57;;
54705;SDS011;40603;48.774;8.916;2023-07-02T10:08:13;22.95;;;10.75;;
54705;SDS011;40603;48.774;8.916;2023-07-02T10:10:42;21.15;;;10.93;;
54705;SDS011;40603;48.774;8.916;2023-07-02T10:13:07;20.48;;;10.30;;
54705;SDS011;40603;48.774;8.916;2023-07-02T10:15:33;22.58;;;10.38;;
54705;SDS011;40603;48.774;8.916;2023-07-02T10:18:02;21.70;;;11.35;;
54705;SDS011;40603;48.774;8.916;2023-07-02T10:20:32;22.95;;;10.23;;
54705;SDS011;40603;48.774;8.916;2023-07-02T10:23:09;23.25;;;11.30;;
54705;SDS011;40603;48.774;8.916;2023-07-02T10:25:37;20.35;;;11.15;;
54705;SDS011;40603;48.774;8.916;2023-07-02T10:28:19;20.42;;;11.27;;
54705;SDS011;40603;48.774;8.916;2023-07-02T10:30:51;22.58;;;10.60;;
54705;SDS011;40603;48.774;8.916;2023-07-02T10:33:18;25.85;;;10.27;;
54705;SDS011;40603;48.774;8.916;2023-07-02T10:35:44;19.60;;;10.30;;
54705;SDS011;40603;48.774;8.916;2023-07-02T10:38:17;24.95;;;10.07;;
54705;SDS011;40603;48.774;8.916;2023-07-02T10:40:44;18.95;;;10.40;;
54705;SDS011;40603;48.774;8.916;2023-07-02T10:43:09;20.67;;;10.70;;
54705;SDS011;40603;48.774;8.916;2023-07-02T10:45:35;20.88;;;10.85;;
54705;SDS011;40603;48.774;8.916;2023-07-02T10:48:01;20.00;;;10.65;;
54705;SDS011;40603;48.774;8.916;2023-07-02T10:50:28;24.48;;;11.15;;
54705;SDS011;40603;48.774;8.916;2023-07-02T10:52:53;21.08;;;10.93;;
54705;SDS011;40603;48.774;8.916;2023-07-02T10:55:19;18.08;;;10.68;;
54705;SDS011;40603;48.774;8.916;2023-07-02T10:57:45;19.65;;;10.18;;
54705;SDS011;40603;48.774;8.916;2023-07-02T11:00:10;24.25;;;11.38;;
54705;SDS011;40603;48.774;8.916;2023-07-02T11:02:37;16.42;;;10.70;;
54705;SDS011;40603;48.774;8.916;2023-07-02T11:05:02;18.23;;;10.75;;
54705;SDS011;40603;48.774;8.916;2023-07-02T11:07:29;19.83;;;10.52;;
54705;SDS011;40603;48.774;8.916;2023-07-02T11:09:54;17.15;;;10.85;;
54705;SDS011;40603;48.774;8.916;2023-07-02T11:12:27;18.90;;;10.65;;
54705;SDS011;40603;48.774;8.916;2023-07-02T11:14:52;21.42;;;11.35;;
54705;SDS011;40603;48.774;8.916;2023-07-02T11:17:24;23.13;;;12.35;;
54705;SDS011;40603;48.774;8.916;2023-07-02T11:19:50;21.77;;;11.43;;
54705;SDS011;40603;48.774;8.916;2023-07-02T11:22:16;19.58;;;11.45;;
54705;SDS011;40603;48.774;8.916;2023-07-02T11:24:41;20.65;;;10.88;;
54705;SDS011;40603;48.774;8.916;2023-07-02T11:27:06;18.85;;;10.93;;
54705;SDS011;40603;48.774;8.916;2023-07-02T11:29:33;17.20;;;10.43;;
54705;SDS011;40603;48.774;8.916;2023-07-02T11:32:08;21.08;;;11.05;;
54705;SDS011;40603;48.774;8.916;2023-07-02T11:34:34;19.75;;;11.18;;
54705;SDS011;40603;48.774;8.916;2023-07-02T11:37:00;20.02;;;10.55;;
54705;SDS011;40603;48.774;8.916;2023-07-02T11:39:25;20.27;;;11.02;;
54705;SDS011;40603;48.774;8.916;2023-07-02T11:41:51;20.17;;;11.77;;
54705;SDS011;40603;48.774;8.916;2023-07-02T11:44:17;21.90;;;11.38;;
54705;SDS011;40603;48.774;8.916;2023-07-02T11:46:43;18.02;;;11.07;;
54705;SDS011;40603;48.774;8.916;2023-07-02T11:49:08;17.08;;;10.20;;
54705;SDS011;40603;48.774;8.916;2023-07-02T11:51:35;23.85;;;12.55;;
54705;SDS011;40603;48.774;8.916;2023-07-02T11:54:01;20.15;;;10.98;;
54705;SDS011;40603;48.774;8.916;2023-07-02T11:56:26;22.08;;;12.02;;
54705;SDS011;40603;48.774;8.916;2023-07-02T11:58:51;26.33;;;12.20;;
54705;SDS011;40603;48.774;8.916;2023-07-02T12:01:16;19.55;;;11.18;;
54705;SDS011;40603;48.774;8.916;2023-07-02T12:03:42;22.08;;;10.77;;
54705;SDS011;40603;48.774;8.916;2023-07-02T12:06:08;22.85;;;11.27;;
54705;SDS011;40603;48.774;8.916;2023-07-02T12:08:33;24.45;;;11.80;;
54705;SDS011;40603;48.774;8.916;2023-07-02T12:10:59;19.60;;;11.65;;
54705;SDS011;40603;48.774;8.916;2023-07-02T12:13:24;21.95;;;11.32;;
54705;SDS011;40603;48.774;8.916;2023-07-02T12:15:49;22.73;;;11.90;;
54705;SDS011;40603;48.774;8.916;2023-07-02T12:18:16;18.65;;;10.70;;
54705;SDS011;40603;48.774;8.916;2023-07-02T12:20:41;20.02;;;11.13;;
54705;SDS011;40603;48.774;8.916;2023-07-02T12:23:07;21.63;;;10.63;;
54705;SDS011;40603;48.774;8.916;2023-07-02T12:25:32;20.45;;;11.18;;
54705;SDS011;40603;48.774;8.916;2023-07-02T12:27:58;22.98;;;12.10;;
54705;SDS011;40603;48.774;8.916;2023-07-02T12:30:23;25.83;;;12.13;;
54705;SDS011;40603;48.774;8.916;2023-07-02T12:32:48;24.10;;;11.32;;
54705;SDS011;40603;48.774;8.916;2023-07-02T12:35:14;16.73;;;10.43;;
54705;SDS011;40603;48.774;8.916;2023-07-02T12:37:46;20.10;;;10.70;;
54705;SDS011;40603;48.774;8.916;2023-07-02T12:40:13;22.00;;;11.23;;
54705;SDS011;40603;48.774;8.916;2023-07-02T12:42:40;21.02;;;11.90;;
54705;SDS011;40603;48.774;8.916;2023-07-02T12:45:06;23.90;;;11.65;;
54705;SDS011;40603;48.774;8.916;2023-07-02T12:47:31;18.63;;;11.10;;
54705;SDS011;40603;48.774;8.916;2023-07-02T12:49:57;19.00;;;10.85;;
54705;SDS011;40603;48.774;8.916;2023-07-02T12:52:22;19.58;;;10.85;;
54705;SDS011;40603;48.774;8.916;2023-07-02T12:54:47;24.05;;;11.73;;
54705;SDS011;40603;48.774;8.916;2023-07-02T12:57:13;20.73;;;11.77;;
54705;SDS011;40603;48.774;8.916;2023-07-02T12:59:38;21.15;;;10.68;;
54705;SDS011;40603;48.774;8.916;2023-07-02T13:02:03;24.15;;;12.45;;
54705;SDS011;40603;48.774;8.916;2023-07-02T13:04:29;23.05;;;12.82;;
54705;SDS011;40603;48.774;8.916;2023-07-02T13:06:54;20.23;;;10.93;;
54705;SDS011;40603;48.774;8.916;2023-07-02T13:09:19;19.55;;;11.30;;
54705;SDS011;40603;48.774;8.916;2023-07-02T13:11:45;23.15;;;10.95;;
54705;SDS011;40603;48.774;8.916;2023-07-02T13:14:11;19.85;;;11.20;;
54705;SDS011;40603;48.774;8.916;2023-07-02T13:16:36;22.80;;;11.60;;
54705;SDS011;40603;48.774;8.916;2023-07-02T13:19:01;19.77;;;11.65;;
54705;SDS011;40603;48.774;8.916;2023-07-02T13:21:27;20.85;;;11.10;;
54705;SDS011;40603;48.774;8.916;2023-07-02T13:23:53;20.75;;;11.70;;
54705;SDS011;40603;48.774;8.916;2023-07-02T13:26:18;19.83;;;10.98;;
54705;SDS011;40603;48.774;8.916;2023-07-02T13:28:44;19.73;;;11.27;;
54705;SDS011;40603;48.774;8.916;2023-07-02T13:31:12;25.17;;;11.98;;
54705;SDS011;40603;48.774;8.916;2023-07-02T13:33:37;21.08;;;11.82;;
54705;SDS011;40603;48.774;8.916;2023-07-02T13:36:04;23.58;;;10.93;;
54705;SDS011;40603;48.774;8.916;2023-07-02T13:38:30;20.92;;;10.98;;
54705;SDS011;40603;48.774;8.916;2023-07-02T13:40:55;19.25;;;11.18;;
54705;SDS011;40603;48.774;8.916;2023-07-02T13:43:21;21.45;;;11.48;;
54705;SDS011;40603;48.774;8.916;2023-07-02T13:45:46;20.27;;;12.15;;
54705;SDS011;40603;48.774;8.916;2023-07-02T13:48:11;17.75;;;11.05;;
54705;SDS011;40603;48.774;8.916;2023-07-02T13:50:37;25.30;;;11.55;;
54705;SDS011;40603;48.774;8.916;2023-07-02T13:53:02;18.85;;;11.48;;
54705;SDS011;40603;48.774;8.916;2023-07-02T13:55:27;21.50;;;12.48;;
54705;SDS011;40603;48.774;8.916;2023-07-02T13:57:54;20.70;;;10.85;;
54705;SDS011;40603;48.774;8.916;2023-07-02T14:00:20;23.33;;;11.75;;
54705;SDS011;40603;48.774;8.916;2023-07-02T14:02:46;20.08;;;11.40;;
54705;SDS011;40603;48.774;8.916;2023-07-02T14:05:11;26.67;;;12.35;;
54705;SDS011;40603;48.774;8.916;2023-07-02T14:07:36;23.90;;;11.00;;
54705;SDS011;40603;48.774;8.916;2023-07-02T14:10:02;20.38;;;11.52;;
54705;SDS011;40603;48.774;8.916;2023-07-02T14:12:28;19.45;;;11.57;;
54705;SDS011;40603;48.774;8.916;2023-07-02T14:14:53;19.77;;;10.88;;
54705;SDS011;40603;48.774;8.916;2023-07-02T14:17:18;20.73;;;11.27;;
54705;SDS011;40603;48.774;8.916;2023-07-02T14:19:44;16.95;;;11.23;;
54705;SDS011;40603;48.774;8.916;2023-07-02T14:22:10;20.38;;;11.27;;
54705;SDS011;40603;48.774;8.916;2023-07-02T14:24:35;18.95;;;11.73;;
54705;SDS011;40603;48.774;8.916;2023-07-02T14:27:00;21.45;;;11.90;;
54705;SDS011;40603;48.774;8.916;2023-07-02T14:29:25;21.83;;;11.48;;